createdAt,value
2022-09-20T00:00:50.292Z,10.99
2022-09-20T00:03:17.530Z,10.88
2022-09-20T00:05:45.906Z,11.08
2022-09-20T00:08:15.050Z,10.94
2022-09-20T00:10:42.788Z,10.91
2022-09-20T00:13:12.457Z,11.00
2022-09-20T00:15:44.195Z,11.09
2022-09-20T00:18:11.941Z,11.11
2022-09-20T00:20:49.168Z,10.95
2022-09-20T00:23:16.702Z,10.91
2022-09-20T00:25:43.703Z,10.84
2022-09-20T00:28:10.858Z,10.93
2022-09-20T00:30:38.342Z,11.09
2022-09-20T00:33:05.348Z,11.11
2022-09-20T00:35:32.075Z,11.10
2022-09-20T00:37:58.672Z,11.12
2022-09-20T00:40:26.987Z,11.02
2022-09-20T00:42:54.663Z,10.85
2022-09-20T00:45:29.522Z,10.89
2022-09-20T00:48:13.543Z,10.95
2022-09-20T00:50:46.986Z,11.00
2022-09-20T00:53:19.414Z,11.00
2022-09-20T00:55:54.175Z,10.97
2022-09-20T00:58:22.339Z,11.01
2022-09-20T01:00:51.280Z,10.96
2022-09-20T01:03:22.821Z,10.91
2022-09-20T01:05:53.906Z,10.93
2022-09-20T01:08:24.461Z,10.94
2022-09-20T01:10:52.459Z,11.03
2022-09-20T01:13:18.981Z,10.90
2022-09-20T01:15:48.055Z,11.07
2022-09-20T01:18:16.288Z,10.92
2022-09-20T01:20:45.651Z,10.97
2022-09-20T01:23:26.438Z,10.93
2022-09-20T01:26:09.632Z,10.83
2022-09-20T01:28:37.080Z,10.96
2022-09-20T01:31:22.545Z,10.98
2022-09-20T01:33:53.197Z,10.78
2022-09-20T01:36:31.592Z,10.93
2022-09-20T01:38:58.187Z,10.76
2022-09-20T01:41:33.581Z,10.84
2022-09-20T01:44:06.190Z,11.01
2022-09-20T01:46:36.996Z,11.06
2022-09-20T01:49:18.148Z,10.98
2022-09-20T01:52:12.230Z,10.95
2022-09-20T01:55:27.170Z,10.91
2022-09-20T01:58:15.457Z,10.92
2022-09-20T02:01:11.675Z,10.84
2022-09-20T02:03:57.419Z,10.78
2022-09-20T02:07:01.741Z,10.68
2022-09-20T02:10:10.500Z,10.84
2022-09-20T02:12:56.433Z,10.91
2022-09-20T02:15:42.331Z,10.86
2022-09-20T02:18:46.907Z,10.96
2022-09-20T02:21:37.987Z,10.94
2022-09-20T02:24:29.678Z,11.05
2022-09-20T02:27:20.561Z,11.09
2022-09-20T02:30:08.665Z,10.95
2022-09-20T02:32:54.263Z,11.01
2022-09-20T02:35:27.585Z,10.89
2022-09-20T02:38:15.739Z,10.88
2022-09-20T02:41:06.977Z,10.95
2022-09-20T02:43:44.422Z,11.02
2022-09-20T02:46:19.471Z,10.95
2022-09-20T02:48:56.210Z,10.93
2022-09-20T02:51:48.089Z,10.89
2022-09-20T02:54:26.600Z,10.89
2022-09-20T02:57:11.482Z,10.88
2022-09-20T02:59:52.296Z,10.93
2022-09-20T03:02:32.631Z,10.84
2022-09-20T03:05:18.119Z,10.90
2022-09-20T03:08:03.263Z,10.79
2022-09-20T03:10:52.139Z,10.92
2022-09-20T03:14:05.221Z,10.89
2022-09-20T03:16:52.044Z,10.91
2022-09-20T03:19:38.081Z,10.93
2022-09-20T03:22:36.715Z,11.01
2022-09-20T03:25:15.463Z,10.98
2022-09-20T03:28:03.983Z,11.17
2022-09-20T03:30:48.820Z,11.09
2022-09-20T03:33:36.625Z,11.02
2022-09-20T03:36:11.076Z,11.05
2022-09-20T03:39:05.896Z,11.19
2022-09-20T03:41:38.725Z,11.25
2022-09-20T03:44:28.271Z,11.22
2022-09-20T03:47:15.188Z,11.21
2022-09-20T03:50:21.431Z,11.17
2022-09-20T03:53:06.648Z,11.03
2022-09-20T03:55:48.510Z,10.92
2022-09-20T03:58:29.171Z,11.02
2022-09-20T04:01:01.699Z,10.87
2022-09-20T04:03:47.196Z,10.83
2022-09-20T04:06:33.380Z,10.90
2022-09-20T04:09:29.101Z,10.85
2022-09-20T04:12:12.541Z,10.88
2022-09-20T04:14:53.203Z,11.07
2022-09-20T04:17:35.614Z,11.25
2022-09-20T04:20:44.220Z,11.17
2022-09-20T04:23:28.383Z,11.23
2022-09-20T04:25:55.250Z,11.22
2022-09-20T04:28:28.527Z,11.16
2022-09-20T04:31:05.495Z,11.17
2022-09-20T04:33:39.906Z,11.12
2022-09-20T04:36:30.413Z,11.17
2022-09-20T04:39:15.866Z,11.06
2022-09-20T04:42:08.478Z,11.07
2022-09-20T04:44:53.606Z,11.23
2022-09-20T04:47:36.696Z,11.13
2022-09-20T04:50:31.239Z,10.99
2022-09-20T04:53:16.850Z,11.08
2022-09-20T04:55:50.571Z,11.14
2022-09-20T04:58:36.223Z,11.35
2022-09-20T05:01:10.942Z,11.37
2022-09-20T05:04:11.245Z,11.35
2022-09-20T05:07:07.279Z,11.31
2022-09-20T05:09:42.909Z,11.20
2022-09-20T05:12:27.167Z,11.33
2022-09-20T05:15:09.421Z,11.44
2022-09-20T05:18:00.271Z,11.51
2022-09-20T05:20:44.767Z,11.56
2022-09-20T05:23:22.312Z,11.50
2022-09-20T05:25:58.217Z,11.39
2022-09-20T05:28:44.699Z,11.27
2022-09-20T05:31:28.755Z,11.37
2022-09-20T05:34:11.793Z,11.43
2022-09-20T05:36:47.701Z,11.39
2022-09-20T05:39:46.787Z,11.46
2022-09-20T05:42:24.163Z,11.53
2022-09-20T05:45:18.661Z,11.52
2022-09-20T05:48:04.047Z,11.60
2022-09-20T05:50:59.519Z,11.61
2022-09-20T05:53:55.193Z,11.60
2022-09-20T05:56:30.839Z,11.58
2022-09-20T05:59:22.224Z,11.57
2022-09-20T06:02:23.729Z,11.54
2022-09-20T06:05:03.425Z,11.64
2022-09-20T06:07:48.376Z,11.68
2022-09-20T06:10:31.041Z,11.75
2022-09-20T06:13:16.877Z,11.76
2022-09-20T06:15:44.963Z,11.73
2022-09-20T06:18:29.235Z,11.65
2022-09-20T06:21:17.672Z,11.66
2022-09-20T06:23:44.495Z,11.67
2022-09-20T06:26:17.238Z,11.81
2022-09-20T06:28:58.349Z,11.80
2022-09-20T06:31:26.362Z,11.78
2022-09-20T06:34:05.515Z,11.72
2022-09-20T06:36:52.840Z,11.81
2022-09-20T06:39:53.888Z,11.91
2022-09-20T06:42:23.334Z,11.97
2022-09-20T06:44:53.286Z,11.99
2022-09-20T06:47:19.764Z,11.97
2022-09-20T06:49:46.699Z,11.93
2022-09-20T06:52:19.320Z,11.76
2022-09-20T06:54:55.676Z,11.76
2022-09-20T06:57:27.471Z,11.62
2022-09-20T06:59:54.147Z,11.47
2022-09-20T07:02:20.710Z,11.52
2022-09-20T07:04:47.389Z,11.75
2022-09-20T07:07:17.217Z,11.71
2022-09-20T07:09:43.748Z,11.77
2022-09-20T07:12:12.313Z,11.81
2022-09-20T07:14:39.771Z,11.68
2022-09-20T07:17:06.547Z,11.68
2022-09-20T07:19:33.885Z,11.76
2022-09-20T07:22:00.586Z,11.78
2022-09-20T07:24:27.390Z,11.82
2022-09-20T07:26:59.794Z,11.87
2022-09-20T07:29:27.267Z,11.88
2022-09-20T07:31:54.290Z,11.84
2022-09-20T07:34:20.905Z,11.88
2022-09-20T07:36:48.474Z,11.86
2022-09-20T07:39:16.438Z,11.77
2022-09-20T07:41:51.026Z,11.73
2022-09-20T07:44:24.272Z,11.80
2022-09-20T07:46:52.663Z,11.77
2022-09-20T07:49:19.894Z,11.90
2022-09-20T07:51:46.617Z,11.96
2022-09-20T07:54:13.237Z,12.04
2022-09-20T07:56:40.408Z,12.08
2022-09-20T07:59:07.370Z,12.25
2022-09-20T08:01:34.145Z,12.33
2022-09-20T08:04:01.811Z,12.26
2022-09-20T08:06:28.933Z,12.31
2022-09-20T08:08:55.544Z,12.26
2022-09-20T08:11:29.240Z,12.26
2022-09-20T08:14:07.157Z,12.37
2022-09-20T08:16:39.787Z,12.37
2022-09-20T08:19:06.646Z,12.41
2022-09-20T08:21:34.675Z,12.46
2022-09-20T08:24:01.643Z,12.55
2022-09-20T08:26:30.983Z,12.46
2022-09-20T08:28:59.633Z,12.56
2022-09-20T08:31:31.301Z,12.64
2022-09-20T08:33:59.012Z,12.78
2022-09-20T08:36:26.259Z,12.73
2022-09-20T08:41:48.544Z,12.58
2022-09-20T08:44:25.038Z,12.57
2022-09-20T08:47:03.210Z,12.63
2022-09-20T08:49:30.531Z,12.76
2022-09-20T08:51:59.104Z,12.92
2022-09-20T08:54:32.169Z,12.96
2022-09-20T08:57:07.002Z,13.03
2022-09-20T08:59:33.669Z,13.09
2022-09-20T09:02:01.180Z,13.08
2022-09-20T09:04:36.448Z,13.04
2022-09-20T09:07:03.643Z,13.13
2022-09-20T09:09:37.546Z,13.13
2022-09-20T09:12:05.035Z,13.12
2022-09-20T09:14:52.325Z,13.09
2022-09-20T09:17:27.235Z,13.22
2022-09-20T09:20:16.259Z,13.25
2022-09-20T09:22:45.591Z,13.29
2022-09-20T09:25:16.828Z,13.33
2022-09-20T09:27:50.261Z,13.37
2022-09-20T09:30:31.688Z,13.40
2022-09-20T09:33:21.611Z,13.45
2022-09-20T09:36:14.908Z,13.38
2022-09-20T09:38:47.586Z,13.47
2022-09-20T09:41:35.534Z,13.40
2022-09-20T09:44:23.678Z,13.43
2022-09-20T09:46:53.507Z,13.50
2022-09-20T09:49:22.286Z,13.73
2022-09-20T09:52:15.662Z,13.84
2022-09-20T09:54:47.547Z,14.27
2022-09-20T09:57:26.431Z,14.77
2022-09-20T10:00:11.153Z,15.01
2022-09-20T10:03:04.082Z,14.74
2022-09-20T10:05:52.054Z,14.48
2022-09-20T10:08:37.756Z,14.24
2022-09-20T10:11:22.979Z,14.27
2022-09-20T10:14:14.222Z,14.25
2022-09-20T10:16:59.757Z,14.11
2022-09-20T10:19:48.221Z,14.18
2022-09-20T10:23:30.143Z,14.44
2022-09-20T10:25:43.408Z,14.35
2022-09-20T10:28:48.271Z,14.42
2022-09-20T10:31:52.265Z,14.34
2022-09-20T10:34:46.005Z,14.17
2022-09-20T10:37:40.255Z,14.20
2022-09-20T10:40:25.579Z,14.22
2022-09-20T10:43:14.462Z,14.44
2022-09-20T10:46:30.732Z,14.45
2022-09-20T10:49:57.765Z,14.34
2022-09-20T10:52:37.941Z,14.53
2022-09-20T10:55:16.557Z,14.63
2022-09-20T10:58:21.704Z,14.83
2022-09-20T11:01:01.422Z,14.76
2022-09-20T11:04:01.633Z,14.87
2022-09-20T11:06:50.800Z,14.79
2022-09-20T11:09:25.053Z,14.67
2022-09-20T11:12:17.027Z,14.61
2022-09-20T11:15:05.723Z,14.74
2022-09-20T11:17:41.334Z,14.80
2022-09-20T11:20:20.675Z,14.82
2022-09-20T11:22:52.521Z,14.80
2022-09-20T11:25:29.701Z,14.92
2022-09-20T11:28:03.006Z,14.91
2022-09-20T11:30:31.866Z,14.90
2022-09-20T11:33:13.490Z,14.97
2022-09-20T11:35:47.947Z,14.97
2022-09-20T11:38:22.241Z,14.78
2022-09-20T11:41:02.474Z,14.84
2022-09-20T11:43:31.232Z,14.75
2022-09-20T11:46:08.342Z,14.68
2022-09-20T11:48:47.911Z,14.81
2022-09-20T11:51:20.625Z,15.00
2022-09-20T11:53:54.957Z,14.95
2022-09-20T11:56:30.870Z,14.99
2022-09-20T11:59:00.516Z,15.01
2022-09-20T12:01:32.430Z,15.04
2022-09-20T12:04:30.761Z,15.18
2022-09-20T12:07:04.687Z,15.22
2022-09-20T12:09:40.023Z,15.23
2022-09-20T12:12:28.183Z,15.27
2022-09-20T12:14:57.223Z,15.43
2022-09-20T12:17:45.850Z,15.47
2022-09-20T12:20:42.474Z,15.42
2022-09-20T12:23:37.581Z,15.38
2022-09-20T12:26:22.740Z,15.51
2022-09-20T12:28:50.793Z,15.60
2022-09-20T12:31:29.540Z,15.28
2022-09-20T12:34:15.319Z,15.36
2022-09-20T12:36:46.448Z,15.48
2022-09-20T12:39:16.239Z,15.49
2022-09-20T12:41:46.030Z,15.62
2022-09-20T12:44:41.789Z,15.49
2022-09-20T12:47:11.314Z,15.62
2022-09-20T12:50:05.944Z,15.60
2022-09-20T12:52:50.606Z,15.47
2022-09-20T12:55:43.653Z,15.48
2022-09-20T12:58:15.872Z,15.44
2022-09-20T13:00:59.133Z,15.31
2022-09-20T13:03:28.718Z,15.26
2022-09-20T13:06:07.151Z,15.15
2022-09-20T13:08:39.910Z,15.08
2022-09-20T13:11:06.805Z,15.07
2022-09-20T13:13:36.436Z,15.17
2022-09-20T13:16:06.447Z,15.27
2022-09-20T13:18:36.044Z,15.33
2022-09-20T13:21:06.964Z,15.35
2022-09-20T13:23:46.078Z,15.44
2022-09-20T13:26:14.712Z,15.49
2022-09-20T13:28:51.569Z,15.35
2022-09-20T13:31:21.256Z,15.28
2022-09-20T13:33:48.680Z,15.23
2022-09-20T13:36:22.096Z,15.19
2022-09-20T13:38:49.381Z,15.11
2022-09-20T13:41:16.288Z,15.11
2022-09-20T13:43:45.481Z,15.07
2022-09-20T13:46:21.368Z,15.14
2022-09-20T13:48:53.169Z,15.17
2022-09-20T13:51:24.585Z,15.26
2022-09-20T13:53:51.158Z,15.18
2022-09-20T13:56:28.651Z,15.11
2022-09-20T13:58:58.738Z,15.08
2022-09-20T14:01:34.455Z,14.95
2022-09-20T14:04:13.575Z,14.95
2022-09-20T14:06:42.262Z,15.07
2022-09-20T14:09:19.580Z,15.22
2022-09-20T14:11:46.723Z,15.29
2022-09-20T14:14:18.601Z,15.22
2022-09-20T14:16:49.369Z,15.30
2022-09-20T14:19:20.847Z,15.20
2022-09-20T14:21:48.235Z,15.26
2022-09-20T14:24:14.918Z,15.31
2022-09-20T14:26:42.967Z,15.22
2022-09-20T14:29:31.636Z,15.08
2022-09-20T14:32:02.332Z,15.02
2022-09-20T14:34:28.970Z,15.02
2022-09-20T14:37:06.374Z,15.13
2022-09-20T14:39:36.229Z,15.18
2022-09-20T14:42:03.098Z,15.26
2022-09-20T14:44:34.593Z,15.14
2022-09-20T14:47:14.289Z,15.14
2022-09-20T14:49:43.734Z,15.21
2022-09-20T14:52:36.415Z,15.17
2022-09-20T14:55:16.179Z,15.15
2022-09-20T14:57:42.941Z,15.20
2022-09-20T15:00:15.157Z,15.35
2022-09-20T15:02:44.204Z,15.26
2022-09-20T15:05:20.512Z,15.46
2022-09-20T15:07:47.621Z,15.44
2022-09-20T15:10:15.211Z,15.44
2022-09-20T15:12:44.724Z,15.64
2022-09-20T15:15:17.298Z,15.91
2022-09-20T15:17:45.331Z,15.91
2022-09-20T15:20:24.204Z,15.86
2022-09-20T15:22:51.430Z,15.84
2022-09-20T15:25:21.305Z,15.78
2022-09-20T15:27:50.896Z,15.77
2022-09-20T15:30:19.730Z,15.76
2022-09-20T15:32:47.019Z,15.82
2022-09-20T15:35:14.266Z,15.54
2022-09-20T15:37:41.240Z,15.30
2022-09-20T15:40:09.059Z,15.12
2022-09-20T15:42:37.892Z,15.05
2022-09-20T15:45:09.349Z,15.14
2022-09-20T15:47:37.414Z,15.18
2022-09-20T15:50:08.556Z,15.10
2022-09-20T15:52:37.349Z,14.95
2022-09-20T15:55:04.345Z,15.00
2022-09-20T15:57:31.879Z,15.01
2022-09-20T15:59:59.454Z,14.92
2022-09-20T16:02:27.005Z,14.87
2022-09-20T16:04:57.623Z,14.76
2022-09-20T16:07:27.370Z,14.60
2022-09-20T16:09:55.687Z,14.62
2022-09-20T16:12:24.563Z,14.60
2022-09-20T16:14:51.443Z,14.67
2022-09-20T16:17:18.431Z,14.62
2022-09-20T16:19:46.293Z,14.86
2022-09-20T16:22:13.333Z,14.88
2022-09-20T16:24:39.847Z,14.99
2022-09-20T16:27:07.729Z,14.92
2022-09-20T16:29:34.544Z,14.92
2022-09-20T16:32:03.513Z,14.89
2022-09-20T16:34:35.197Z,15.01
2022-09-20T16:37:16.108Z,15.10
2022-09-20T16:39:44.201Z,15.02
2022-09-20T16:42:12.771Z,15.10
2022-09-20T16:44:41.990Z,15.20
2022-09-20T16:47:18.294Z,15.26
2022-09-20T16:49:47.148Z,15.08
2022-09-20T16:52:14.081Z,15.00
2022-09-20T16:54:40.583Z,14.98
2022-09-20T16:57:07.962Z,14.90
2022-09-20T16:59:34.614Z,14.84
2022-09-20T17:02:01.333Z,14.71
2022-09-20T17:04:27.870Z,14.73
2022-09-20T17:06:54.659Z,14.67
2022-09-20T17:09:21.276Z,14.59
2022-09-20T17:11:50.216Z,14.69
2022-09-20T17:14:19.567Z,14.75
2022-09-20T17:16:50.210Z,14.66
2022-09-20T17:19:19.574Z,14.63
2022-09-20T17:21:49.944Z,14.62
2022-09-20T17:24:18.511Z,14.54
2022-09-20T17:26:45.892Z,14.48
2022-09-20T17:29:16.092Z,14.55
2022-09-20T17:31:48.750Z,14.68
2022-09-20T17:34:21.348Z,14.63
2022-09-20T17:36:48.519Z,14.63
2022-09-20T17:39:15.776Z,14.64
2022-09-20T17:41:44.833Z,14.66
2022-09-20T17:44:12.115Z,14.54
2022-09-20T17:46:41.164Z,14.60
2022-09-20T17:49:10.092Z,14.61
2022-09-20T17:51:40.130Z,14.63
2022-09-20T17:54:07.633Z,14.43
2022-09-20T17:56:35.640Z,14.37
2022-09-20T17:59:04.663Z,14.21
2022-09-20T18:01:33.102Z,14.20
2022-09-20T18:04:01.759Z,14.27
2022-09-20T18:06:30.836Z,14.25
2022-09-20T18:09:02.833Z,14.17
2022-09-20T18:11:33.830Z,14.04
2022-09-20T18:14:01.825Z,14.07
2022-09-20T18:16:28.695Z,14.14
2022-09-20T18:18:55.389Z,14.18
2022-09-20T18:21:26.380Z,14.18
2022-09-20T18:23:53.652Z,14.19
2022-09-20T18:26:25.781Z,14.17
2022-09-20T18:29:07.991Z,14.06
2022-09-20T18:31:42.867Z,14.15
2022-09-20T18:34:17.646Z,14.09
2022-09-20T18:36:48.234Z,14.17
2022-09-20T18:39:14.799Z,14.15
2022-09-20T18:41:43.011Z,14.05
2022-09-20T18:44:14.302Z,14.04
2022-09-20T18:46:41.466Z,13.86
2022-09-20T18:49:09.611Z,13.90
2022-09-20T18:51:39.929Z,13.88
2022-09-20T18:54:09.816Z,13.81
2022-09-20T18:56:38.612Z,13.79
2022-09-20T18:59:13.546Z,13.79
2022-09-20T19:01:49.473Z,13.82
2022-09-20T19:04:47.212Z,13.76
2022-09-20T19:07:45.993Z,13.70
2022-09-20T19:10:38.993Z,13.63
2022-09-20T19:13:30.344Z,13.68
2022-09-20T19:16:12.340Z,13.70
2022-09-20T19:19:07.337Z,13.57
2022-09-20T19:21:48.733Z,13.34
2022-09-20T19:24:33.877Z,13.35
2022-09-20T19:27:00.632Z,13.36
2022-09-20T19:29:28.424Z,13.40
2022-09-20T19:31:57.447Z,13.41
2022-09-20T19:34:27.213Z,13.33
2022-09-20T19:36:59.297Z,13.42
2022-09-20T19:39:44.108Z,13.40
2022-09-20T19:42:10.756Z,13.13
2022-09-20T19:44:50.740Z,12.83
2022-09-20T19:47:48.335Z,12.84
2022-09-20T19:50:46.279Z,12.82
2022-09-20T19:53:15.056Z,12.87
2022-09-20T19:55:46.212Z,12.97
2022-09-20T19:58:14.092Z,13.05
2022-09-20T20:00:44.517Z,13.05
2022-09-20T20:03:15.696Z,13.01
2022-09-20T20:05:56.670Z,13.02
2022-09-20T20:08:45.720Z,12.99
2022-09-20T20:11:25.955Z,13.02
2022-09-20T20:14:28.511Z,12.82
2022-09-20T20:17:06.049Z,12.79
2022-09-20T20:20:10.299Z,12.83
2022-09-20T20:22:58.269Z,12.81
2022-09-20T20:25:46.958Z,12.77
2022-09-20T20:28:14.001Z,12.89
2022-09-20T20:30:40.587Z,12.86
2022-09-20T20:33:07.279Z,12.87
2022-09-20T20:35:34.058Z,12.80
2022-09-20T20:38:00.632Z,12.74
2022-09-20T20:40:28.279Z,12.69
2022-09-20T20:43:01.924Z,12.66
2022-09-20T20:45:29.389Z,12.59
2022-09-20T20:47:58.490Z,12.61
2022-09-20T20:50:26.941Z,12.59
2022-09-20T20:52:57.213Z,12.59
2022-09-20T20:55:24.629Z,12.58
2022-09-20T20:57:57.254Z,12.54
2022-09-20T21:00:25.653Z,12.51
2022-09-20T21:02:59.867Z,12.54
2022-09-20T21:05:28.125Z,12.50
2022-09-20T21:07:55.447Z,12.46
2022-09-20T21:10:22.246Z,12.40
2022-09-20T21:12:53.632Z,12.24
2022-09-20T21:15:21.287Z,12.20
2022-09-20T21:17:52.583Z,12.22
2022-09-20T21:20:19.610Z,12.27
2022-09-20T21:22:46.107Z,12.25
2022-09-20T21:25:12.801Z,12.06
2022-09-20T21:27:39.435Z,12.11
2022-09-20T21:30:06.751Z,12.22
2022-09-20T21:32:33.247Z,12.15
2022-09-20T21:34:59.926Z,12.18
2022-09-20T21:37:26.649Z,11.93
2022-09-20T21:39:54.351Z,11.76
2022-09-20T21:42:20.850Z,11.83
2022-09-20T21:44:47.383Z,11.83
2022-09-20T21:47:19.966Z,11.78
2022-09-20T21:49:47.596Z,11.91
2022-09-20T21:52:14.282Z,12.09
2022-09-20T21:54:41.153Z,12.15
2022-09-20T21:57:07.917Z,12.13
2022-09-20T21:59:34.678Z,12.18
2022-09-20T22:02:01.759Z,12.21
2022-09-20T22:04:28.870Z,11.97
2022-09-20T22:06:55.631Z,11.95
2022-09-20T22:09:24.029Z,11.60
2022-09-20T22:11:50.679Z,11.42
2022-09-20T22:14:19.447Z,11.65
2022-09-20T22:16:47.518Z,11.79
2022-09-20T22:19:16.804Z,11.73
2022-09-20T22:21:45.556Z,11.68
2022-09-20T22:24:13.955Z,11.69
2022-09-20T22:26:46.346Z,11.86
2022-09-20T22:29:13.562Z,11.87
2022-09-20T22:31:46.673Z,11.91
2022-09-20T22:34:16.010Z,11.88
2022-09-20T22:36:42.939Z,11.89
2022-09-20T22:39:11.158Z,11.90
2022-09-20T22:41:38.770Z,11.94
2022-09-20T22:44:05.655Z,11.76
2022-09-20T22:46:33.606Z,11.25
2022-09-20T22:49:00.185Z,11.19
2022-09-20T22:51:33.103Z,11.36
2022-09-20T22:54:03.795Z,11.41
2022-09-20T22:56:31.293Z,11.58
2022-09-20T22:59:05.634Z,11.55
2022-09-20T23:01:38.537Z,11.52
2022-09-20T23:04:08.367Z,11.58
2022-09-20T23:06:39.621Z,11.64
2022-09-20T23:09:09.107Z,11.74
2022-09-20T23:11:36.141Z,11.43
2022-09-20T23:14:04.972Z,11.24
2022-09-20T23:16:34.662Z,11.26
2022-09-20T23:19:02.619Z,11.23
2022-09-20T23:21:29.681Z,11.37
2022-09-20T23:23:59.363Z,11.12
2022-09-20T23:26:27.280Z,11.11
2022-09-20T23:28:56.650Z,11.25
2022-09-20T23:31:23.711Z,11.26
2022-09-20T23:33:52.867Z,11.20
2022-09-20T23:36:21.157Z,11.27
2022-09-20T23:38:48.288Z,10.98
2022-09-20T23:41:17.756Z,11.07
2022-09-20T23:43:44.913Z,11.17
2022-09-20T23:46:13.705Z,11.33
2022-09-20T23:48:43.680Z,11.24
2022-09-20T23:51:13.072Z,11.28
2022-09-20T23:53:40.262Z,11.27
2022-09-20T23:56:07.136Z,11.29
2022-09-20T23:58:36.120Z,11.23
